Time;durP1;ratioP1;P1;durP2;ratioP2;P2;SDS_P1;SDS_P2;PMS_P1;PMS_P2;Temp;Humidity;BMP_temperature;BMP_pressure;BME280_temperature;BME280_humidity;BME280_pressure;Samples;Min_cycle;Max_cycle;Signal;HPM_P1;HPM_P2
2021/04/12 00:00:39;;;;;;;5.33;2.30;;;;;;;;;;5043913;28;20213;-52
2021/04/12 00:03:12;;;;;;;4.43;2.23;;;;;;;;;;5045035;28;20210;-54
2021/04/12 00:05:57;;;;;;;4.33;2.00;;;;;;;;;;5045785;28;20812;-52
2021/04/12 00:08:31;;;;;;;3.03;2.00;;;;;;;;;;5043399;28;20251;-54
2021/04/12 00:11:04;;;;;;;3.33;2.20;;;;;;;;;;5043634;28;20680;-54
2021/04/12 00:13:42;;;;;;;3.73;2.10;;;;;;;;;;5045755;28;20724;-52
2021/04/12 00:16:13;;;;;;;4.53;2.63;;;;;;;;;;5048394;28;20657;-54
2021/04/12 00:19:08;;;;;;;3.20;2.10;;;;;;;;;;5046281;28;20555;-54
2021/04/12 00:21:52;;;;;;;5.07;2.17;;;;;;;;;;5044406;28;20202;-55
2021/04/12 00:24:25;;;;;;;2.70;2.10;;;;;;;;;;5044195;28;20605;-54
2021/04/12 00:27:01;;;;;;;5.87;2.50;;;;;;;;;;5042994;28;20531;-55
2021/04/12 00:29:41;;;;;;;4.70;2.63;;;;;;;;;;5048036;28;20199;-56
2021/04/12 00:32:15;;;;;;;3.80;2.43;;;;;;;;;;5041691;28;20202;-56
2021/04/12 00:34:55;;;;;;;7.80;2.87;;;;;;;;;;5040114;28;20253;-57
2021/04/12 00:37:27;;;;;;;4.37;2.40;;;;;;;;;;5043964;28;20258;-54
2021/04/12 00:40:06;;;;;;;4.83;2.43;;;;;;;;;;5042824;28;20212;-55
2021/04/12 00:43:17;;;;;;;5.77;2.83;;;;;;;;;;5042281;28;20217;-54
2021/04/12 00:45:48;;;;;;;3.87;2.50;;;;;;;;;;5027345;28;20275;-53
2021/04/12 00:48:41;;;;;;;6.07;3.00;;;;;;;;;;5043105;28;20281;-55
2021/04/12 00:51:15;;;;;;;6.73;2.60;;;;;;;;;;5042476;28;20201;-54
2021/04/12 00:54:12;;;;;;;4.33;2.27;;;;;;;;;;5042290;28;20218;-54
2021/04/12 00:56:46;;;;;;;4.33;2.47;;;;;;;;;;5044977;28;20276;-53
2021/04/12 00:59:30;;;;;;;6.57;2.83;;;;;;;;;;5044381;28;20190;-54
2021/04/12 01:02:11;;;;;;;4.97;2.43;;;;;;;;;;5042661;28;20300;-54
2021/04/12 01:04:57;;;;;;;8.53;2.40;;;;;;;;;;5042080;28;20737;-54
2021/04/12 01:07:57;;;;;;;4.90;2.23;;;;;;;;;;5042006;28;20202;-54
2021/04/12 01:10:33;;;;;;;7.10;2.67;;;;;;;;;;5042980;28;20194;-53
2021/04/12 01:13:15;;;;;;;6.83;2.90;;;;;;;;;;5043841;28;20610;-56
2021/04/12 01:16:02;;;;;;;5.23;2.63;;;;;;;;;;5043149;28;20209;-55
2021/04/12 01:18:35;;;;;;;6.47;2.60;;;;;;;;;;5041234;28;20217;-53
2021/04/12 01:21:17;;;;;;;5.10;2.83;;;;;;;;;;5043190;28;20178;-52
2021/04/12 01:24:00;;;;;;;5.40;2.63;;;;;;;;;;5042309;28;20220;-54
2021/04/12 01:26:28;;;;;;;4.00;3.00;;;;;;;;;;5043763;28;20186;-55
2021/04/12 01:29:27;;;;;;;5.23;2.63;;;;;;;;;;5045521;28;20181;-55
2021/04/12 01:32:23;;;;;;;4.97;2.63;;;;;;;;;;5042994;28;20245;-57
2021/04/12 01:35:05;;;;;;;7.33;2.80;;;;;;;;;;5043356;28;20290;-53
2021/04/12 01:37:40;;;;;;;4.10;2.33;;;;;;;;;;5048302;28;20268;-54
2021/04/12 01:40:44;;;;;;;4.30;2.30;;;;;;;;;;5042006;28;20204;-53
2021/04/12 01:43:24;;;;;;;2.93;2.20;;;;;;;;;;5025128;28;20225;-53
2021/04/12 01:46:12;;;;;;;6.63;2.90;;;;;;;;;;5040531;28;20662;-53
2021/04/12 01:48:53;;;;;;;4.77;2.63;;;;;;;;;;5040422;28;20209;-54
2021/04/12 01:51:48;;;;;;;3.93;2.67;;;;;;;;;;5047082;28;20236;-56
2021/04/12 01:54:57;;;;;;;5.03;2.87;;;;;;;;;;5028354;28;20231;-54
2021/04/12 01:58:01;;;;;;;5.63;2.57;;;;;;;;;;5040496;28;20615;-55
2021/04/12 02:00:46;;;;;;;3.87;2.40;;;;;;;;;;5042421;28;20568;-53
2021/04/12 02:03:38;;;;;;;7.17;2.37;;;;;;;;;;5043073;28;20205;-53
2021/04/12 02:06:22;;;;;;;4.20;1.90;;;;;;;;;;5041445;28;20204;-55
2021/04/12 02:09:30;;;;;;;4.60;1.83;;;;;;;;;;5040018;28;20189;-53
2021/04/12 02:12:37;;;;;;;4.23;1.70;;;;;;;;;;5041008;28;20218;-56
2021/04/12 02:15:07;;;;;;;3.80;1.73;;;;;;;;;;5041967;28;20202;-54
2021/04/12 02:17:55;;;;;;;5.60;2.17;;;;;;;;;;5040863;28;20194;-53
2021/04/12 02:20:27;;;;;;;4.13;1.87;;;;;;;;;;5042638;28;20637;-57
2021/04/12 02:23:11;;;;;;;3.30;1.77;;;;;;;;;;5041681;28;20367;-54
2021/04/12 02:25:43;;;;;;;4.03;2.63;;;;;;;;;;5044044;28;20220;-55
2021/04/12 02:28:25;;;;;;;3.77;2.40;;;;;;;;;;5040602;28;20193;-53
2021/04/12 02:30:56;;;;;;;7.70;2.90;;;;;;;;;;5042242;28;20209;-53
2021/04/12 02:33:24;;;;;;;3.70;2.50;;;;;;;;;;5041335;28;20460;-55
2021/04/12 02:36:01;;;;;;;4.20;2.73;;;;;;;;;;5041406;28;20200;-53
2021/04/12 02:38:57;;;;;;;7.97;2.50;;;;;;;;;;5041424;28;20397;-52
2021/04/12 02:41:31;;;;;;;6.43;2.93;;;;;;;;;;5041763;28;20201;-56
2021/04/12 02:44:19;;;;;;;3.53;2.53;;;;;;;;;;5041141;28;20657;-55
2021/04/12 02:47:10;;;;;;;6.70;3.60;;;;;;;;;;5043133;28;20174;-54
2021/04/12 02:50:17;;;;;;;5.63;2.53;;;;;;;;;;5044252;28;20266;-56
2021/04/12 02:52:55;;;;;;;3.73;2.20;;;;;;;;;;5042669;28;20221;-54
2021/04/12 02:55:58;;;;;;;5.87;3.30;;;;;;;;;;5046434;28;20201;-53
2021/04/12 02:58:35;;;;;;;6.43;3.50;;;;;;;;;;5040940;28;20205;-55
2021/04/12 03:01:25;;;;;;;4.00;2.87;;;;;;;;;;5048373;28;20188;-53
2021/04/12 03:04:04;;;;;;;5.43;3.10;;;;;;;;;;5044492;28;20792;-54
2021/04/12 03:06:47;;;;;;;5.17;2.53;;;;;;;;;;5043207;28;20296;-55
2021/04/12 03:09:34;;;;;;;4.77;2.20;;;;;;;;;;5045031;28;20208;-55
2021/04/12 03:12:32;;;;;;;5.23;2.00;;;;;;;;;;5047748;28;20278;-55
2021/04/12 03:15:06;;;;;;;9.43;2.50;;;;;;;;;;5045547;28;20207;-55
2021/04/12 03:17:58;;;;;;;6.33;2.40;;;;;;;;;;5053408;28;20204;-56
2021/04/12 03:20:41;;;;;;;6.20;2.40;;;;;;;;;;5043334;28;20269;-53
2021/04/12 03:23:34;;;;;;;4.93;2.73;;;;;;;;;;5045543;28;20210;-53
2021/04/12 03:26:05;;;;;;;7.10;2.70;;;;;;;;;;5049905;28;20189;-53
2021/04/12 03:28:47;;;;;;;6.23;2.37;;;;;;;;;;5052981;28;20236;-54
2021/04/12 03:31:21;;;;;;;4.13;2.33;;;;;;;;;;5051234;28;20245;-54
2021/04/12 03:34:17;;;;;;;6.03;2.47;;;;;;;;;;5047754;28;20223;-52
2021/04/12 03:37:22;;;;;;;3.70;2.20;;;;;;;;;;5044167;28;20205;-53
2021/04/12 03:39:52;;;;;;;5.83;2.40;;;;;;;;;;5045535;28;20204;-54
2021/04/12 03:42:39;;;;;;;6.57;2.70;;;;;;;;;;5052638;28;20237;-55
2021/04/12 03:45:16;;;;;;;7.20;3.27;;;;;;;;;;5043388;28;20204;-54
2021/04/12 03:47:57;;;;;;;5.77;4.30;;;;;;;;;;5044790;28;21657;-52
2021/04/12 03:50:29;;;;;;;7.40;4.17;;;;;;;;;;5041848;28;20222;-53
2021/04/12 03:53:22;;;;;;;6.70;3.83;;;;;;;;;;5044218;28;20724;-55
2021/04/12 03:56:11;;;;;;;8.87;4.60;;;;;;;;;;5045578;28;20194;-53
2021/04/12 03:58:58;;;;;;;6.03;4.33;;;;;;;;;;5044726;28;20205;-54
2021/04/12 04:01:38;;;;;;;8.20;4.30;;;;;;;;;;5044924;28;20233;-51
2021/04/12 04:04:20;;;;;;;8.03;4.27;;;;;;;;;;5044918;28;20194;-54
2021/04/12 04:07:03;;;;;;;6.97;4.40;;;;;;;;;;5044850;28;20209;-54
2021/04/12 04:09:56;;;;;;;3.97;3.40;;;;;;;;;;5044705;28;20206;-55
2021/04/12 04:12:46;;;;;;;6.67;3.70;;;;;;;;;;5046024;28;20221;-54
2021/04/12 04:15:36;;;;;;;7.10;4.20;;;;;;;;;;5045364;28;21727;-52
2021/04/12 04:18:17;;;;;;;6.13;3.80;;;;;;;;;;5043943;28;20187;-54
2021/04/12 04:21:05;;;;;;;8.60;4.10;;;;;;;;;;5043695;28;20193;-52
2021/04/12 04:23:57;;;;;;;7.13;3.97;;;;;;;;;;5042102;28;20213;-55
2021/04/12 04:26:59;;;;;;;10.67;4.20;;;;;;;;;;5019159;28;20257;-56
2021/04/12 04:29:43;;;;;;;6.80;4.00;;;;;;;;;;5044844;28;20198;-54
2021/04/12 04:32:25;;;;;;;9.07;3.83;;;;;;;;;;5044872;28;20259;-54
2021/04/12 04:35:08;;;;;;;5.43;3.57;;;;;;;;;;5037722;28;20256;-54
2021/04/12 04:37:52;;;;;;;9.90;4.20;;;;;;;;;;5044990;28;20194;-53
2021/04/12 04:40:39;;;;;;;6.63;3.90;;;;;;;;;;5041947;28;20196;-54
2021/04/12 04:43:17;;;;;;;7.03;3.90;;;;;;;;;;5042412;28;20228;-54
2021/04/12 04:45:58;;;;;;;8.30;3.57;;;;;;;;;;5042189;28;20197;-53
2021/04/12 04:48:37;;;;;;;6.30;3.53;;;;;;;;;;5042598;28;20201;-53
2021/04/12 04:51:30;;;;;;;6.33;3.07;;;;;;;;;;5045479;28;20236;-56
2021/04/12 04:54:23;;;;;;;6.40;3.40;;;;;;;;;;5044604;28;20198;-53
2021/04/12 04:57:03;;;;;;;8.70;3.40;;;;;;;;;;5047762;28;20243;-53
2021/04/12 04:59:53;;;;;;;6.77;3.30;;;;;;;;;;5044524;28;20571;-55
2021/04/12 05:02:30;;;;;;;9.40;3.07;;;;;;;;;;5041752;28;20212;-52
2021/04/12 05:05:04;;;;;;;7.70;3.20;;;;;;;;;;5042199;28;20198;-54
2021/04/12 05:07:41;;;;;;;7.80;3.43;;;;;;;;;;5043925;28;20214;-55
2021/04/12 05:10:25;;;;;;;5.23;3.17;;;;;;;;;;5042658;28;20731;-55
2021/04/12 05:13:09;;;;;;;4.97;3.40;;;;;;;;;;5043281;28;20236;-52
2021/04/12 05:16:02;;;;;;;7.10;3.23;;;;;;;;;;5042393;28;20186;-53
2021/04/12 05:18:38;;;;;;;6.97;3.30;;;;;;;;;;5040970;28;20202;-54
2021/04/12 05:21:41;;;;;;;7.03;3.30;;;;;;;;;;5042943;28;20233;-57
2021/04/12 05:24:30;;;;;;;4.47;3.13;;;;;;;;;;5042707;28;20194;-55
2021/04/12 05:27:07;;;;;;;6.27;3.00;;;;;;;;;;5042013;28;20225;-55
2021/04/12 05:29:57;;;;;;;7.13;3.13;;;;;;;;;;5041846;28;20243;-56
2021/04/12 05:32:31;;;;;;;9.00;3.90;;;;;;;;;;5045995;28;20209;-51
2021/04/12 05:35:35;;;;;;;8.07;4.10;;;;;;;;;;5038896;28;20194;-54
2021/04/12 05:38:39;;;;;;;6.90;3.60;;;;;;;;;;5036013;28;20696;-55
2021/04/12 05:41:22;;;;;;;6.10;3.43;;;;;;;;;;5037197;28;21166;-56
2021/04/12 05:44:10;;;;;;;4.17;2.63;;;;;;;;;;5047369;28;20197;-53
2021/04/12 05:46:57;;;;;;;5.57;2.97;;;;;;;;;;5040814;28;20208;-53
2021/04/12 05:49:28;;;;;;;5.03;2.90;;;;;;;;;;5038170;28;20265;-55
2021/04/12 05:52:02;;;;;;;6.77;3.10;;;;;;;;;;5038909;28;20206;-54
2021/04/12 05:54:39;;;;;;;5.90;2.63;;;;;;;;;;5041344;28;20244;-53
2021/04/12 05:57:38;;;;;;;7.83;3.27;;;;;;;;;;5041236;28;20186;-54
2021/04/12 06:00:18;;;;;;;6.17;3.00;;;;;;;;;;5039978;28;20194;-56
2021/04/12 06:03:05;;;;;;;7.70;2.73;;;;;;;;;;5035616;28;20677;-53
2021/04/12 06:05:41;;;;;;;9.80;3.00;;;;;;;;;;5041148;28;20189;-54
2021/04/12 06:08:31;;;;;;;6.97;2.80;;;;;;;;;;5043255;28;20202;-54
2021/04/12 06:11:15;;;;;;;4.50;2.77;;;;;;;;;;5040466;28;20227;-56
2021/04/12 06:13:58;;;;;;;2.83;2.47;;;;;;;;;;5042290;28;20927;-54
2021/04/12 06:16:58;;;;;;;6.00;2.40;;;;;;;;;;5026560;28;20740;-56
2021/04/12 06:19:44;;;;;;;6.80;2.73;;;;;;;;;;5035399;28;20271;-56
2021/04/12 06:22:18;;;;;;;7.87;2.73;;;;;;;;;;5034410;28;20226;-53
2021/04/12 06:25:10;;;;;;;5.60;2.60;;;;;;;;;;5040904;28;20193;-54
2021/04/12 06:28:13;;;;;;;5.67;2.67;;;;;;;;;;5035936;28;20202;-53
2021/04/12 06:30:52;;;;;;;5.87;2.97;;;;;;;;;;5037278;28;20316;-52
2021/04/12 06:33:44;;;;;;;5.33;2.50;;;;;;;;;;5034999;28;20217;-52
2021/04/12 06:36:26;;;;;;;3.97;2.30;;;;;;;;;;5030313;28;20922;-50
2021/04/12 06:39:02;;;;;;;3.10;2.20;;;;;;;;;;5030019;28;20697;-53
2021/04/12 06:41:54;;;;;;;6.43;2.67;;;;;;;;;;5036599;28;20242;-54
2021/04/12 06:45:06;;;;;;;5.50;2.63;;;;;;;;;;5037291;28;20200;-53
2021/04/12 06:47:57;;;;;;;6.87;2.47;;;;;;;;;;4976671;28;20199;-53
2021/04/12 06:50:55;;;;;;;8.70;2.50;;;;;;;;;;5030787;28;20209;-50
2021/04/12 06:54:10;;;;;;;5.47;2.30;;;;;;;;;;5033255;28;20639;-53
2021/04/12 06:56:59;;;;;;;4.13;2.50;;;;;;;;;;5016982;28;20205;-54
2021/04/12 06:59:52;;;;;;;7.00;2.77;;;;;;;;;;5032956;28;20198;-52
2021/04/12 07:02:50;;;;;;;4.57;2.40;;;;;;;;;;5033438;28;20992;-53
2021/04/12 07:05:21;;;;;;;4.27;2.10;;;;;;;;;;5035936;28;20194;-54
2021/04/12 07:08:19;;;;;;;6.93;2.43;;;;;;;;;;5037467;28;20692;-54
2021/04/12 07:11:03;;;;;;;6.77;2.30;;;;;;;;;;5006286;28;20224;-55
2021/04/12 07:13:55;;;;;;;4.83;2.37;;;;;;;;;;5033383;28;20232;-55
2021/04/12 07:16:38;;;;;;;3.90;1.80;;;;;;;;;;5032753;28;20186;-55
2021/04/12 07:19:51;;;;;;;4.43;2.20;;;;;;;;;;5039163;28;20328;-59
2021/04/12 07:22:31;;;;;;;8.57;2.47;;;;;;;;;;5033638;28;20210;-54
2021/04/12 07:25:29;;;;;;;8.93;2.10;;;;;;;;;;5033399;28;20217;-55
2021/04/12 07:28:20;;;;;;;4.70;1.90;;;;;;;;;;5034149;28;20186;-53
2021/04/12 07:31:16;;;;;;;5.57;2.10;;;;;;;;;;5035344;28;20202;-54
2021/04/12 07:34:06;;;;;;;4.87;1.90;;;;;;;;;;5032555;28;20268;-54
2021/04/12 07:37:22;;;;;;;5.53;2.23;;;;;;;;;;5036455;28;20229;-53
2021/04/12 07:40:29;;;;;;;2.70;2.00;;;;;;;;;;4979179;28;20210;-55
2021/04/12 07:43:39;;;;;;;3.37;2.20;;;;;;;;;;5039199;28;20685;-53
2021/04/12 07:46:19;;;;;;;7.67;2.47;;;;;;;;;;5041919;28;20183;-54
2021/04/12 07:49:03;;;;;;;4.23;2.30;;;;;;;;;;5042204;28;20212;-56
2021/04/12 07:51:57;;;;;;;3.27;1.90;;;;;;;;;;5040234;28;20218;-56
2021/04/12 07:54:41;;;;;;;3.93;2.23;;;;;;;;;;5043900;28;20193;-54
2021/04/12 07:57:17;;;;;;;7.23;2.30;;;;;;;;;;5043682;28;20198;-56
2021/04/12 08:00:39;;;;;;;4.20;2.00;;;;;;;;;;5043842;28;20206;-57
2021/04/12 08:03:42;;;;;;;3.77;2.00;;;;;;;;;;5000429;28;20266;-55
2021/04/12 08:07:10;;;;;;;4.53;2.07;;;;;;;;;;4999559;28;20789;-55
2021/04/12 08:09:58;;;;;;;3.53;1.67;;;;;;;;;;5005028;28;20216;-54
2021/04/12 08:13:21;;;;;;;2.80;1.80;;;;;;;;;;5042836;28;20252;-56
2021/04/12 08:16:05;;;;;;;4.97;2.07;;;;;;;;;;4973264;28;20203;-55
2021/04/12 08:18:33;;;;;;;4.33;2.03;;;;;;;;;;4982136;28;20203;-52
2021/04/12 08:21:20;;;;;;;4.23;1.97;;;;;;;;;;5025487;28;20202;-52
2021/04/12 08:24:22;;;;;;;4.50;2.23;;;;;;;;;;5043588;28;20186;-53
2021/04/12 08:27:22;;;;;;;4.97;2.30;;;;;;;;;;5044437;28;20193;-54
2021/04/12 08:30:18;;;;;;;6.07;2.37;;;;;;;;;;5043905;28;20197;-54
2021/04/12 08:33:14;;;;;;;4.73;2.30;;;;;;;;;;5046821;28;20300;-51
2021/04/12 08:35:58;;;;;;;4.40;2.23;;;;;;;;;;5038696;28;20244;-52
2021/04/12 08:38:44;;;;;;;4.23;1.90;;;;;;;;;;5038783;28;20279;-55
2021/04/12 08:41:38;;;;;;;4.17;2.33;;;;;;;;;;5039395;28;20194;-53
2021/04/12 08:44:09;;;;;;;6.23;2.30;;;;;;;;;;5037082;28;20776;-55
2021/04/12 08:46:56;;;;;;;3.43;2.07;;;;;;;;;;5039269;28;20275;-54
2021/04/12 08:49:47;;;;;;;3.80;1.80;;;;;;;;;;5039966;28;20198;-51
2021/04/12 08:52:49;;;;;;;4.10;2.10;;;;;;;;;;5039786;28;20214;-52
2021/04/12 08:55:38;;;;;;;5.40;2.20;;;;;;;;;;5041877;28;20198;-52
2021/04/12 08:58:36;;;;;;;3.43;2.03;;;;;;;;;;5040876;28;20652;-51
2021/04/12 09:01:14;;;;;;;4.90;2.17;;;;;;;;;;5009627;28;20602;-51
2021/04/12 09:04:08;;;;;;;5.30;1.80;;;;;;;;;;5040678;28;20221;-52
2021/04/12 09:07:10;;;;;;;5.60;1.97;;;;;;;;;;5037262;28;20195;-53
2021/04/12 09:10:05;;;;;;;3.63;1.87;;;;;;;;;;5044037;28;20197;-52
2021/04/12 09:12:39;;;;;;;3.70;1.80;;;;;;;;;;5037761;28;20226;-52
2021/04/12 09:15:29;;;;;;;6.40;2.03;;;;;;;;;;5036353;28;20197;-54
2021/04/12 09:18:11;;;;;;;6.90;1.90;;;;;;;;;;5041877;28;20340;-54
2021/04/12 09:20:53;;;;;;;4.67;1.80;;;;;;;;;;5036512;28;20197;-55
2021/04/12 09:23:18;;;;;;;5.30;1.63;;;;;;;;;;5040521;28;20498;-55
2021/04/12 09:26:21;;;;;;;5.53;1.60;;;;;;;;;;5042786;28;20202;-54
2021/04/12 09:29:11;;;;;;;4.07;1.60;;;;;;;;;;5032602;28;20185;-52
2021/04/12 09:31:55;;;;;;;2.53;1.40;;;;;;;;;;5038268;28;20280;-53
2021/04/12 09:34:26;;;;;;;5.73;1.77;;;;;;;;;;5041173;28;20237;-52
2021/04/12 09:37:35;;;;;;;5.17;2.00;;;;;;;;;;5039691;28;20201;-52
2021/04/12 09:40:22;;;;;;;3.10;1.47;;;;;;;;;;5039009;28;20204;-52
2021/04/12 09:43:10;;;;;;;5.73;1.47;;;;;;;;;;5038493;28;20213;-54
2021/04/12 09:46:00;;;;;;;3.53;1.57;;;;;;;;;;5041198;28;20219;-53
2021/04/12 09:48:32;;;;;;;3.00;1.60;;;;;;;;;;5040162;28;20193;-52
2021/04/12 09:51:33;;;;;;;5.43;1.93;;;;;;;;;;5041202;28;20623;-54
2021/04/12 09:54:13;;;;;;;3.33;1.47;;;;;;;;;;5028839;28;20207;-54
2021/04/12 09:57:04;;;;;;;3.97;1.40;;;;;;;;;;5040014;28;20228;-54
2021/04/12 09:59:38;;;;;;;4.50;1.70;;;;;;;;;;5039336;28;20190;-52
2021/04/12 10:02:41;;;;;;;3.23;1.30;;;;;;;;;;5040006;28;20201;-52
2021/04/12 10:05:43;;;;;;;5.83;1.60;;;;;;;;;;5041132;28;20189;-54
2021/04/12 10:08:29;;;;;;;2.73;1.37;;;;;;;;;;5038460;28;20222;-53
2021/04/12 10:11:09;;;;;;;3.00;1.20;;;;;;;;;;5040025;28;20938;-52
2021/04/12 10:13:52;;;;;;;3.03;1.73;;;;;;;;;;5039140;28;20296;-52
2021/04/12 10:16:21;;;;;;;2.63;1.30;;;;;;;;;;5041855;28;20186;-53
2021/04/12 10:19:13;;;;;;;3.77;1.33;;;;;;;;;;5040345;28;20194;-54
2021/04/12 10:21:53;;;;;;;4.40;1.20;;;;;;;;;;5037340;28;20197;-51
2021/04/12 10:24:18;;;;;;;3.83;1.40;;;;;;;;;;5040636;28;20616;-55
2021/04/12 10:27:13;;;;;;;5.43;1.77;;;;;;;;;;5035889;28;20190;-52
2021/04/12 10:29:53;;;;;;;5.83;1.50;;;;;;;;;;5054172;28;20574;-55
2021/04/12 10:32:32;;;;;;;2.50;1.07;;;;;;;;;;5039428;28;20212;-54
2021/04/12 10:35:09;;;;;;;2.53;1.13;;;;;;;;;;5043332;28;20666;-54
2021/04/12 10:38:12;;;;;;;5.00;1.07;;;;;;;;;;5040698;28;20208;-53
2021/04/12 10:40:46;;;;;;;5.60;1.77;;;;;;;;;;5020067;28;20267;-54
2021/04/12 10:43:25;;;;;;;4.43;1.60;;;;;;;;;;5042894;28;20208;-55
2021/04/12 10:46:09;;;;;;;5.13;1.30;;;;;;;;;;5026051;28;20201;-53
2021/04/12 10:48:50;;;;;;;4.77;1.43;;;;;;;;;;5040526;28;20297;-54
2021/04/12 10:51:43;;;;;;;5.70;1.43;;;;;;;;;;5039522;28;20600;-53
2021/04/12 10:54:35;;;;;;;1.43;0.97;;;;;;;;;;5040304;28;20739;-53
2021/04/12 10:57:22;;;;;;;3.63;1.00;;;;;;;;;;5050361;28;20196;-56
2021/04/12 11:00:08;;;;;;;2.73;1.37;;;;;;;;;;5039596;28;20189;-54
2021/04/12 11:03:01;;;;;;;5.90;1.20;;;;;;;;;;5041160;28;20251;-56
2021/04/12 11:05:29;;;;;;;4.10;1.13;;;;;;;;;;5040386;28;20194;-54
2021/04/12 11:08:19;;;;;;;8.50;1.60;;;;;;;;;;5044845;28;20269;-57
2021/04/12 11:11:09;;;;;;;4.17;1.70;;;;;;;;;;5039735;28;20213;-53
2021/04/12 11:13:38;;;;;;;2.67;1.20;;;;;;;;;;5040363;28;20212;-52
2021/04/12 11:16:30;;;;;;;1.70;1.20;;;;;;;;;;5036105;28;20186;-53
2021/04/12 11:19:08;;;;;;;4.03;1.23;;;;;;;;;;5037923;28;20197;-53
2021/04/12 11:21:54;;;;;;;3.37;1.00;;;;;;;;;;5052732;28;20209;-53
2021/04/12 11:24:41;;;;;;;4.60;1.27;;;;;;;;;;5037331;28;20181;-55
2021/04/12 11:27:40;;;;;;;2.80;1.23;;;;;;;;;;5040734;28;20615;-53
2021/04/12 11:30:42;;;;;;;2.93;1.17;;;;;;;;;;5044977;28;20278;-54
2021/04/12 11:33:31;;;;;;;3.03;1.10;;;;;;;;;;5043445;28;20209;-53
2021/04/12 11:36:21;;;;;;;3.87;1.10;;;;;;;;;;5042782;28;20274;-54
2021/04/12 11:39:02;;;;;;;2.27;1.00;;;;;;;;;;5043238;28;20205;-55
2021/04/12 11:41:34;;;;;;;1.37;0.70;;;;;;;;;;5049246;28;20188;-54
2021/04/12 11:44:09;;;;;;;3.87;1.20;;;;;;;;;;5038434;28;20726;-57
2021/04/12 11:46:48;;;;;;;2.83;1.10;;;;;;;;;;5042002;28;20200;-52
2021/04/12 11:49:29;;;;;;;2.93;1.17;;;;;;;;;;5043112;28;20269;-55
2021/04/12 11:52:33;;;;;;;2.73;1.10;;;;;;;;;;5040664;28;20272;-51
2021/04/12 11:55:17;;;;;;;2.30;1.00;;;;;;;;;;5017102;28;20197;-53
2021/04/12 11:57:51;;;;;;;2.33;0.90;;;;;;;;;;5043373;28;20276;-52
2021/04/12 12:00:43;;;;;;;2.87;1.20;;;;;;;;;;5038596;28;20275;-53
2021/04/12 12:03:14;;;;;;;3.93;1.10;;;;;;;;;;5042166;28;20217;-56
2021/04/12 12:06:09;;;;;;;3.80;1.37;;;;;;;;;;5046026;28;20880;-56
2021/04/12 12:09:14;;;;;;;2.80;1.10;;;;;;;;;;5041644;28;20190;-52
2021/04/12 12:11:46;;;;;;;3.10;1.20;;;;;;;;;;5042451;28;20709;-53
2021/04/12 12:14:22;;;;;;;1.30;0.90;;;;;;;;;;5045535;28;20201;-55
2021/04/12 12:16:49;;;;;;;3.10;1.13;;;;;;;;;;5043044;28;20221;-53
2021/04/12 12:19:33;;;;;;;1.53;0.90;;;;;;;;;;5043205;28;20277;-55
2021/04/12 12:22:00;;;;;;;5.93;1.30;;;;;;;;;;5048924;28;20210;-53
2021/04/12 12:24:32;;;;;;;3.63;1.40;;;;;;;;;;5039896;28;20207;-57
2021/04/12 12:27:05;;;;;;;3.80;1.20;;;;;;;;;;5045415;28;20273;-54
2021/04/12 12:29:47;;;;;;;2.87;1.30;;;;;;;;;;5042470;28;20214;-56
2021/04/12 12:32:15;;;;;;;2.47;1.03;;;;;;;;;;5040520;28;20271;-53
2021/04/12 12:34:56;;;;;;;1.83;1.30;;;;;;;;;;5037853;28;20205;-56
2021/04/12 12:37:47;;;;;;;4.63;1.57;;;;;;;;;;5043739;28;20276;-52
2021/04/12 12:40:17;;;;;;;1.60;0.77;;;;;;;;;;5038954;28;20205;-56
2021/04/12 12:42:48;;;;;;;2.50;0.97;;;;;;;;;;5042357;28;20576;-52
2021/04/12 12:45:28;;;;;;;2.10;1.20;;;;;;;;;;5042056;28;20658;-56
2021/04/12 12:47:58;;;;;;;1.53;1.00;;;;;;;;;;5040607;28;20203;-54
2021/04/12 12:50:29;;;;;;;2.47;1.00;;;;;;;;;;5042326;28;20205;-53
2021/04/12 12:53:25;;;;;;;5.17;1.50;;;;;;;;;;5040412;28;20210;-52
2021/04/12 12:55:56;;;;;;;1.77;1.03;;;;;;;;;;5042523;28;20309;-52
2021/04/12 12:58:25;;;;;;;5.93;1.30;;;;;;;;;;5047315;28;20860;-54
2021/04/12 13:00:53;;;;;;;2.40;1.10;;;;;;;;;;5045249;28;20658;-54
2021/04/12 13:03:34;;;;;;;3.40;1.40;;;;;;;;;;5043542;28;20201;-52
2021/04/12 13:06:25;;;;;;;2.33;1.20;;;;;;;;;;5039535;28;20655;-54
2021/04/12 13:08:57;;;;;;;1.90;1.00;;;;;;;;;;5044275;28;20190;-56
2021/04/12 13:11:37;;;;;;;2.97;1.10;;;;;;;;;;5039895;28;20301;-53
2021/04/12 13:14:18;;;;;;;2.60;1.20;;;;;;;;;;5036688;28;20202;-54
2021/04/12 13:16:45;;;;;;;2.30;1.20;;;;;;;;;;5041873;28;20238;-54
2021/04/12 13:19:13;;;;;;;1.73;1.23;;;;;;;;;;5039465;28;20671;-54
2021/04/12 13:21:42;;;;;;;5.00;1.20;;;;;;;;;;5041667;28;20603;-53
2021/04/12 13:24:33;;;;;;;4.60;1.30;;;;;;;;;;5040544;28;20190;-54
2021/04/12 13:27:11;;;;;;;2.63;1.03;;;;;;;;;;5040036;28;20243;-54
2021/04/12 13:29:47;;;;;;;2.97;1.07;;;;;;;;;;5042524;28;20264;-52
2021/04/12 13:32:16;;;;;;;2.70;1.00;;;;;;;;;;5042305;28;20213;-54
2021/04/12 13:34:48;;;;;;;2.27;1.20;;;;;;;;;;5041158;28;20206;-53
2021/04/12 13:37:18;;;;;;;3.17;1.20;;;;;;;;;;5043628;28;20616;-54
2021/04/12 13:39:46;;;;;;;2.07;1.00;;;;;;;;;;5040344;28;20209;-52
2021/04/12 13:42:23;;;;;;;1.87;1.13;;;;;;;;;;5041024;28;20701;-52
2021/04/12 13:44:58;;;;;;;3.20;1.50;;;;;;;;;;5045920;28;20193;-53
2021/04/12 13:47:39;;;;;;;3.40;1.10;;;;;;;;;;5042937;28;20197;-53
2021/04/12 13:50:19;;;;;;;1.67;1.00;;;;;;;;;;5041681;28;20748;-52
2021/04/12 13:53:10;;;;;;;2.10;1.20;;;;;;;;;;5040482;28;20241;-52
2021/04/12 13:55:43;;;;;;;3.20;1.17;;;;;;;;;;5025504;28;20305;-55
2021/04/12 13:58:12;;;;;;;3.50;1.37;;;;;;;;;;5035456;28;20185;-51
2021/04/12 14:00:52;;;;;;;2.53;1.33;;;;;;;;;;5040732;28;20190;-50
2021/04/12 14:03:25;;;;;;;2.47;1.40;;;;;;;;;;5041976;28;20212;-50
2021/04/12 14:06:02;;;;;;;8.13;0.90;;;;;;;;;;5044362;28;20215;-51
2021/04/12 14:08:31;;;;;;;2.47;1.03;;;;;;;;;;5043185;28;20296;-52
2021/04/12 14:11:06;;;;;;;3.60;1.13;;;;;;;;;;5043865;28;20590;-52
2021/04/12 14:13:40;;;;;;;4.50;1.50;;;;;;;;;;5042375;28;20216;-50
2021/04/12 14:16:25;;;;;;;1.93;1.10;;;;;;;;;;5041085;28;20194;-54
2021/04/12 14:19:05;;;;;;;3.10;1.17;;;;;;;;;;5043854;28;20308;-52
2021/04/12 14:21:34;;;;;;;4.23;1.30;;;;;;;;;;5036716;28;20198;-51
2021/04/12 14:24:09;;;;;;;4.07;1.87;;;;;;;;;;5039345;28;20569;-53
2021/04/12 14:26:45;;;;;;;2.50;1.47;;;;;;;;;;5042857;28;20553;-54
2021/04/12 14:29:26;;;;;;;3.60;1.37;;;;;;;;;;5040407;28;20212;-53
2021/04/12 14:31:53;;;;;;;3.20;1.60;;;;;;;;;;5041940;28;20264;-52
2021/04/12 14:34:41;;;;;;;3.30;1.23;;;;;;;;;;5039281;28;20206;-51
2021/04/12 14:37:11;;;;;;;2.90;1.40;;;;;;;;;;5036437;28;20186;-51
2021/04/12 14:39:38;;;;;;;2.20;1.20;;;;;;;;;;5041661;28;20239;-50
2021/04/12 14:42:12;;;;;;;2.83;1.37;;;;;;;;;;5039970;28;20214;-53
2021/04/12 14:44:42;;;;;;;3.03;1.17;;;;;;;;;;5037764;28;20202;-52
2021/04/12 14:47:14;;;;;;;1.10;0.87;;;;;;;;;;5037514;28;20225;-55
2021/04/12 14:49:48;;;;;;;1.87;0.90;;;;;;;;;;5039833;28;20193;-52
2021/04/12 14:52:41;;;;;;;2.50;1.00;;;;;;;;;;5038808;28;20271;-51
2021/04/12 14:55:13;;;;;;;5.10;1.20;;;;;;;;;;5034974;28;20198;-49
2021/04/12 14:57:41;;;;;;;2.43;0.90;;;;;;;;;;5035047;28;20193;-55
2021/04/12 15:00:21;;;;;;;1.17;1.00;;;;;;;;;;5034297;28;20189;-51
2021/04/12 15:02:55;;;;;;;0.87;0.70;;;;;;;;;;5037630;28;20202;-49
2021/04/12 15:05:31;;;;;;;2.10;0.73;;;;;;;;;;5038751;28;20206;-52
2021/04/12 15:07:58;;;;;;;0.67;0.67;;;;;;;;;;5042727;28;20773;-50
2021/04/12 15:10:40;;;;;;;1.93;0.80;;;;;;;;;;5041343;28;20223;-51
2021/04/12 15:13:26;;;;;;;0.90;0.90;;;;;;;;;;5038808;28;20214;-52
2021/04/12 15:16:11;;;;;;;1.03;0.87;;;;;;;;;;5042051;28;20193;-50
2021/04/12 15:18:40;;;;;;;1.07;0.83;;;;;;;;;;5042829;28;20198;-48
2021/04/12 15:21:15;;;;;;;1.30;0.90;;;;;;;;;;5044544;28;20190;-49
2021/04/12 15:23:43;;;;;;;1.67;0.83;;;;;;;;;;5048824;28;20258;-55
2021/04/12 15:26:31;;;;;;;1.77;1.00;;;;;;;;;;5035257;28;20226;-53
2021/04/12 15:29:21;;;;;;;1.27;0.83;;;;;;;;;;5040637;28;20201;-51
2021/04/12 15:31:51;;;;;;;2.23;0.93;;;;;;;;;;5038766;28;20245;-54
2021/04/12 15:34:38;;;;;;;1.87;1.37;;;;;;;;;;5040990;28;20278;-55
2021/04/12 15:37:13;;;;;;;0.67;0.60;;;;;;;;;;5040209;28;20654;-53
2021/04/12 15:39:39;;;;;;;0.90;0.60;;;;;;;;;;5040273;28;20263;-56
2021/04/12 15:42:18;;;;;;;1.20;1.00;;;;;;;;;;5039065;28;20683;-55
2021/04/12 15:44:49;;;;;;;2.43;0.90;;;;;;;;;;5040371;28;20193;-56
2021/04/12 15:47:20;;;;;;;2.83;1.03;;;;;;;;;;5038734;28;20916;-53
2021/04/12 15:49:51;;;;;;;1.43;1.10;;;;;;;;;;5038485;28;20209;-55
2021/04/12 15:52:20;;;;;;;1.13;0.67;;;;;;;;;;5043677;28;20221;-55
2021/04/12 15:55:01;;;;;;;1.43;0.90;;;;;;;;;;5039728;28;20210;-53
2021/04/12 15:57:29;;;;;;;1.90;1.20;;;;;;;;;;5040309;28;20202;-52
2021/04/12 15:59:59;;;;;;;1.53;0.87;;;;;;;;;;5038411;28;20285;-50
2021/04/12 16:02:33;;;;;;;2.90;1.07;;;;;;;;;;5038136;28;20217;-51
2021/04/12 16:05:09;;;;;;;1.67;0.70;;;;;;;;;;5035190;28;20208;-53
2021/04/12 16:07:47;;;;;;;2.50;1.40;;;;;;;;;;5042850;28;20289;-55
2021/04/12 16:10:28;;;;;;;1.97;1.50;;;;;;;;;;5040949;28;20568;-55
2021/04/12 16:12:53;;;;;;;2.73;1.60;;;;;;;;;;5040268;28;20805;-51
2021/04/12 16:15:31;;;;;;;3.10;1.60;;;;;;;;;;5041377;28;20284;-52
2021/04/12 16:18:07;;;;;;;2.17;1.30;;;;;;;;;;5050101;28;20221;-51
2021/04/12 16:20:36;;;;;;;2.00;1.20;;;;;;;;;;5044613;28;20217;-54